createdAt,value
2017-05-31T00:00:30.835Z,60.26
2017-05-31T00:01:31.541Z,60.35
2017-05-31T00:02:32.495Z,60.93
2017-05-31T00:03:33.216Z,61.03
2017-05-31T00:04:33.926Z,60.26
2017-05-31T00:05:34.628Z,60.74
2017-05-31T00:06:35.333Z,60.64
2017-05-31T00:07:36.285Z,60.55
2017-05-31T00:08:36.989Z,60.55
2017-05-31T00:09:37.693Z,60.64
2017-05-31T00:10:38.398Z,60.26
2017-05-31T00:11:39.103Z,60.83
2017-05-31T00:12:40.061Z,60.83
2017-05-31T00:13:40.764Z,60.64
2017-05-31T00:14:41.475Z,60.93
2017-05-31T00:15:42.179Z,61.61
2017-05-31T00:16:42.880Z,61.71
2017-05-31T00:17:43.830Z,61.41
2017-05-31T00:18:44.532Z,61.32
2017-05-31T00:19:45.234Z,61.90
2017-05-31T00:20:45.936Z,61.41
2017-05-31T00:21:46.639Z,61.32
2017-05-31T00:22:47.589Z,61.71
2017-05-31T00:23:48.291Z,62.45
2017-05-31T00:24:48.995Z,62.57
2017-05-31T00:25:49.697Z,63.41
2017-05-31T00:26:50.402Z,63.89
2017-05-31T00:27:51.359Z,63.41
2017-05-31T00:28:52.063Z,63.02
2017-05-31T00:29:52.766Z,63.50
2017-05-31T00:30:53.469Z,63.12
2017-05-31T00:31:54.178Z,62.83
2017-05-31T00:32:55.133Z,63.02
2017-05-31T00:33:55.838Z,62.63
2017-05-31T00:34:56.543Z,63.31
2017-05-31T00:35:57.258Z,64.28
2017-05-31T00:36:57.966Z,63.12
2017-05-31T00:37:58.866Z,63.12
2017-05-31T00:38:59.569Z,62.83
2017-05-31T00:40:00.271Z,64.66
2017-05-31T00:41:00.974Z,64.34
2017-05-31T00:42:01.680Z,63.60
2017-05-31T00:43:02.644Z,64.56
2017-05-31T00:44:03.344Z,63.79
2017-05-31T00:45:04.046Z,63.31
2017-05-31T00:46:04.753Z,63.21
2017-05-31T00:47:05.456Z,63.41
2017-05-31T00:48:06.408Z,63.79
2017-05-31T00:49:07.113Z,63.89
2017-05-31T00:50:07.816Z,63.60
2017-05-31T00:51:08.516Z,63.79
2017-05-31T00:52:09.224Z,63.79
2017-05-31T00:53:10.124Z,63.79
2017-05-31T00:54:10.827Z,64.18
2017-05-31T00:55:11.528Z,64.08
2017-05-31T00:56:12.232Z,64.47
2017-05-31T00:57:12.933Z,64.66
2017-05-31T00:58:13.886Z,64.95
2017-05-31T00:59:14.598Z,64.86
2017-05-31T01:00:15.300Z,64.28
2017-05-31T01:01:16.002Z,65.30
2017-05-31T01:02:16.705Z,65.30
2017-05-31T01:03:17.408Z,65.20
2017-05-31T01:04:18.109Z,65.40
2017-05-31T01:05:18.810Z,65.20
2017-05-31T01:06:19.512Z,65.14
2017-05-31T01:07:20.213Z,65.11
2017-05-31T01:08:21.169Z,65.24
2017-05-31T01:09:21.871Z,65.05
2017-05-31T01:10:22.575Z,64.82
2017-05-31T01:11:23.278Z,65.11
2017-05-31T01:12:23.982Z,65.01
2017-05-31T01:13:24.937Z,65.40
2017-05-31T01:14:25.644Z,65.01
2017-05-31T01:15:26.346Z,64.25
2017-05-31T01:16:27.047Z,65.20
2017-05-31T01:17:27.749Z,65.88
2017-05-31T01:18:28.705Z,65.59
2017-05-31T01:19:29.408Z,65.78
2017-05-31T01:20:30.115Z,65.98
2017-05-31T01:21:30.818Z,65.30
2017-05-31T01:22:31.520Z,65.59
2017-05-31T01:23:32.477Z,65.53
2017-05-31T01:24:33.190Z,65.69
2017-05-31T01:25:33.896Z,65.78
2017-05-31T01:26:34.598Z,65.78
2017-05-31T01:27:35.302Z,65.78
2017-05-31T01:28:36.256Z,65.69
2017-05-31T01:29:36.976Z,65.78
2017-05-31T01:30:37.695Z,65.69
2017-05-31T01:31:38.404Z,66.07
2017-05-31T01:32:39.107Z,65.69
2017-05-31T01:33:40.058Z,65.50
2017-05-31T01:34:40.766Z,65.69
2017-05-31T01:35:41.470Z,65.69
2017-05-31T01:36:42.173Z,65.88
2017-05-31T01:37:42.877Z,66.27
2017-05-31T01:38:43.827Z,65.88
2017-05-31T01:39:44.530Z,65.69
2017-05-31T01:40:45.232Z,65.69
2017-05-31T01:41:45.935Z,65.88
2017-05-31T01:42:46.636Z,65.88
2017-05-31T01:43:47.536Z,65.78
2017-05-31T01:44:48.239Z,66.27
2017-05-31T01:45:48.943Z,66.07
2017-05-31T01:46:49.645Z,66.27
2017-05-31T01:47:50.351Z,66.55
2017-05-31T01:48:51.306Z,66.27
2017-05-31T01:49:52.010Z,66.17
2017-05-31T01:50:52.714Z,66.36
2017-05-31T01:51:53.427Z,66.17
2017-05-31T01:52:54.130Z,66.27
2017-05-31T01:53:55.086Z,66.94
2017-05-31T01:54:55.789Z,67.03
2017-05-31T01:55:56.494Z,66.94
2017-05-31T01:56:57.197Z,66.07
2017-05-31T01:57:57.898Z,66.85
2017-05-31T01:58:58.850Z,66.94
2017-05-31T01:59:59.558Z,66.75
2017-05-31T02:01:00.270Z,67.03
2017-05-31T02:02:00.971Z,67.13
2017-05-31T02:03:01.679Z,67.13
2017-05-31T02:04:02.635Z,67.42
2017-05-31T02:05:03.337Z,67.19
2017-05-31T02:06:04.039Z,67.58
2017-05-31T02:07:04.739Z,67.49
2017-05-31T02:08:05.443Z,67.23
2017-05-31T02:09:06.405Z,67.00
2017-05-31T02:10:07.110Z,67.49
2017-05-31T02:11:07.813Z,68.35
2017-05-31T02:12:08.516Z,68.64
2017-05-31T02:13:09.215Z,68.06
2017-05-31T02:14:10.174Z,67.68
2017-05-31T02:15:10.876Z,67.97
2017-05-31T02:16:11.578Z,67.58
2017-05-31T02:17:12.289Z,67.68
2017-05-31T02:18:12.995Z,67.87
2017-05-31T02:19:13.951Z,67.87
2017-05-31T02:20:14.654Z,68.74
2017-05-31T02:21:15.369Z,68.54
2017-05-31T02:22:16.071Z,69.02
2017-05-31T02:23:18.330Z,69.02
2017-05-31T02:24:18.735Z,68.41
2017-05-31T02:25:19.439Z,69.02
2017-05-31T02:26:20.176Z,68.64
2017-05-31T02:27:20.887Z,69.95
2017-05-31T02:28:21.599Z,69.67
2017-05-31T02:29:22.506Z,69.18
2017-05-31T02:30:23.213Z,68.80
2017-05-31T02:31:23.915Z,68.90
2017-05-31T02:32:24.620Z,68.70
2017-05-31T02:33:25.320Z,68.80
2017-05-31T02:34:26.272Z,69.18
2017-05-31T02:35:26.976Z,69.95
2017-05-31T02:36:27.680Z,69.57
2017-05-31T02:37:28.381Z,70.72
2017-05-31T02:38:29.083Z,70.92
2017-05-31T02:39:30.033Z,70.92
2017-05-31T02:40:30.733Z,70.24
2017-05-31T02:41:31.434Z,69.85
2017-05-31T02:42:32.134Z,70.24
2017-05-31T02:43:32.836Z,69.95
2017-05-31T02:44:33.790Z,70.43
2017-05-31T02:45:34.493Z,70.05
2017-05-31T02:46:35.197Z,69.76
2017-05-31T02:47:35.900Z,69.85
2017-05-31T02:48:36.601Z,69.85
2017-05-31T02:49:37.553Z,69.76
2017-05-31T02:50:38.253Z,69.95
2017-05-31T02:51:38.956Z,70.40
2017-05-31T02:52:39.658Z,69.92
2017-05-31T02:53:40.361Z,69.82
2017-05-31T02:54:41.319Z,70.40
2017-05-31T02:55:42.029Z,70.59
2017-05-31T02:56:42.732Z,70.21
2017-05-31T02:57:43.442Z,71.26
2017-05-31T02:58:44.143Z,70.21
2017-05-31T02:59:45.095Z,71.84
2017-05-31T03:00:45.801Z,71.36
2017-05-31T03:01:46.504Z,71.17
2017-05-31T03:02:47.209Z,71.55
2017-05-31T03:03:47.916Z,72.13
2017-05-31T03:04:48.872Z,71.36
2017-05-31T03:05:49.577Z,71.26
2017-05-31T03:06:50.302Z,71.46
2017-05-31T03:07:51.006Z,71.55
2017-05-31T03:08:51.708Z,71.97
2017-05-31T03:09:52.617Z,71.84
2017-05-31T03:10:53.322Z,72.23
2017-05-31T03:11:54.025Z,73.00
2017-05-31T03:12:54.734Z,72.03
2017-05-31T03:13:55.438Z,72.32
2017-05-31T03:14:56.393Z,72.23
2017-05-31T03:15:57.107Z,72.80
2017-05-31T03:16:57.807Z,72.90
2017-05-31T03:17:58.511Z,72.71
2017-05-31T03:18:59.215Z,72.52
2017-05-31T03:20:00.168Z,72.71
2017-05-31T03:21:00.878Z,73.09
2017-05-31T03:22:01.584Z,72.71
2017-05-31T03:23:02.290Z,72.71
2017-05-31T03:24:02.994Z,73.19
2017-05-31T03:25:03.700Z,72.71
2017-05-31T03:26:04.405Z,72.23
2017-05-31T03:27:05.107Z,73.47
2017-05-31T03:28:05.809Z,73.19
2017-05-31T03:29:06.512Z,73.00
2017-05-31T03:30:07.423Z,73.57
2017-05-31T03:31:08.127Z,73.57
2017-05-31T03:32:08.831Z,74.05
2017-05-31T03:33:09.534Z,74.05
2017-05-31T03:34:10.235Z,74.54
2017-05-31T03:35:11.186Z,74.54
2017-05-31T03:36:11.895Z,74.63
2017-05-31T03:37:12.600Z,74.44
2017-05-31T03:38:13.310Z,75.02
2017-05-31T03:39:14.014Z,75.21
2017-05-31T03:40:14.922Z,74.73
2017-05-31T03:41:15.628Z,74.44
2017-05-31T03:42:16.340Z,74.82
2017-05-31T03:43:17.042Z,74.82
2017-05-31T03:44:17.745Z,75.11
2017-05-31T03:45:18.702Z,74.82
2017-05-31T03:46:19.407Z,74.73
2017-05-31T03:47:20.115Z,75.11
2017-05-31T03:48:20.820Z,75.11
2017-05-31T03:49:21.523Z,74.82
2017-05-31T03:50:22.480Z,75.02
2017-05-31T03:51:23.182Z,73.96
2017-05-31T03:52:23.897Z,74.34
2017-05-31T03:53:24.600Z,74.29
2017-05-31T03:54:25.303Z,73.77
2017-05-31T03:55:26.209Z,74.82
2017-05-31T03:56:26.914Z,74.15
2017-05-31T03:57:27.632Z,75.02
2017-05-31T03:58:28.339Z,74.63
2017-05-31T03:59:29.049Z,74.05
2017-05-31T04:00:30.014Z,74.05
2017-05-31T04:01:30.723Z,73.77
2017-05-31T04:02:31.434Z,73.86
2017-05-31T04:03:32.137Z,73.99
2017-05-31T04:04:32.846Z,73.61
2017-05-31T04:05:33.806Z,73.47
2017-05-31T04:06:34.512Z,73.96
2017-05-31T04:07:35.213Z,74.25
2017-05-31T04:08:35.921Z,74.92
2017-05-31T04:09:36.627Z,74.82
2017-05-31T04:10:37.583Z,74.92
2017-05-31T04:11:38.287Z,75.88
2017-05-31T04:12:38.992Z,75.79
2017-05-31T04:13:39.692Z,75.79
2017-05-31T04:14:40.403Z,75.49
2017-05-31T04:15:41.316Z,75.21
2017-05-31T04:16:42.019Z,74.73
2017-05-31T04:17:42.725Z,74.54
2017-05-31T04:18:43.426Z,74.15
2017-05-31T04:19:44.151Z,74.05
2017-05-31T04:20:45.106Z,74.15
2017-05-31T04:21:45.809Z,73.77
2017-05-31T04:22:46.512Z,73.99
2017-05-31T04:23:47.228Z,73.99
2017-05-31T04:24:47.934Z,74.05
2017-05-31T04:25:48.888Z,73.28
2017-05-31T04:26:49.589Z,73.67
2017-05-31T04:27:50.294Z,73.96
2017-05-31T04:28:50.997Z,74.34
2017-05-31T04:29:51.706Z,73.67
2017-05-31T04:30:52.612Z,73.57
2017-05-31T04:31:53.322Z,73.57
2017-05-31T04:32:54.032Z,73.51
2017-05-31T04:33:54.741Z,73.42
2017-05-31T04:34:55.449Z,73.61
2017-05-31T04:35:56.355Z,73.71
2017-05-31T04:36:57.069Z,73.51
2017-05-31T04:37:57.778Z,73.22
2017-05-31T04:38:58.487Z,73.61
2017-05-31T04:39:59.218Z,73.42
2017-05-31T04:41:00.136Z,74.05
2017-05-31T04:42:00.841Z,73.99
2017-05-31T04:43:01.547Z,74.29
2017-05-31T04:44:02.255Z,73.99
2017-05-31T04:45:02.961Z,73.99
2017-05-31T04:46:03.916Z,73.71
2017-05-31T04:47:04.626Z,74.09
2017-05-31T04:48:05.331Z,73.55
2017-05-31T04:49:06.039Z,73.74
2017-05-31T04:50:06.747Z,73.16
2017-05-31T04:51:07.703Z,73.16
2017-05-31T04:52:08.409Z,73.07
2017-05-31T04:53:09.116Z,73.07
2017-05-31T04:54:09.821Z,72.78
2017-05-31T04:55:10.532Z,72.39
2017-05-31T04:56:11.492Z,72.78
2017-05-31T04:57:12.198Z,72.59
2017-05-31T04:58:12.903Z,72.49
2017-05-31T04:59:13.609Z,72.11
2017-05-31T05:00:14.319Z,72.49
2017-05-31T05:01:15.280Z,72.49
2017-05-31T05:02:15.986Z,72.49
2017-05-31T05:03:16.692Z,72.39
2017-05-31T05:04:17.415Z,72.59
2017-05-31T05:05:18.125Z,72.59
2017-05-31T05:06:19.084Z,72.68
2017-05-31T05:07:19.793Z,72.59
2017-05-31T05:08:20.502Z,72.49
2017-05-31T05:09:21.212Z,72.30
2017-05-31T05:10:21.919Z,72.68
2017-05-31T05:11:22.876Z,72.49
2017-05-31T05:12:23.586Z,72.39
2017-05-31T05:13:24.289Z,72.68
2017-05-31T05:14:24.996Z,72.78
2017-05-31T05:15:25.701Z,72.39
2017-05-31T05:16:26.659Z,72.49
2017-05-31T05:17:27.366Z,72.59
2017-05-31T05:18:28.075Z,71.85
2017-05-31T05:19:28.784Z,72.30
2017-05-31T05:20:29.494Z,72.20
2017-05-31T05:21:30.399Z,72.59
2017-05-31T05:22:31.111Z,72.39
2017-05-31T05:23:31.818Z,72.59
2017-05-31T05:24:32.526Z,72.30
2017-05-31T05:25:33.229Z,71.91
2017-05-31T05:26:34.183Z,72.49
2017-05-31T05:27:34.890Z,72.49
2017-05-31T05:28:35.606Z,72.30
2017-05-31T05:29:36.315Z,72.55
2017-05-31T05:30:37.026Z,72.59
2017-05-31T05:31:37.987Z,72.39
2017-05-31T05:32:38.694Z,72.59
2017-05-31T05:33:39.407Z,72.68
2017-05-31T05:34:40.120Z,72.78
2017-05-31T05:35:40.836Z,72.78
2017-05-31T05:36:41.794Z,72.78
2017-05-31T05:37:42.512Z,72.78
2017-05-31T05:38:43.232Z,72.78
2017-05-31T05:39:43.938Z,72.59
2017-05-31T05:40:44.646Z,72.78
2017-05-31T05:41:45.558Z,72.78
2017-05-31T05:42:46.266Z,72.68
2017-05-31T05:43:46.975Z,72.39
2017-05-31T05:44:47.689Z,72.78
2017-05-31T05:45:48.396Z,72.78
2017-05-31T05:46:49.307Z,72.26
2017-05-31T05:47:50.012Z,72.39
2017-05-31T05:48:50.719Z,72.68
2017-05-31T05:49:51.426Z,72.68
2017-05-31T05:50:52.131Z,72.39
2017-05-31T05:51:52.833Z,72.30
2017-05-31T05:52:53.538Z,72.45
2017-05-31T05:53:54.241Z,72.36
2017-05-31T05:54:54.950Z,72.74
2017-05-31T05:55:55.652Z,72.78
2017-05-31T05:56:56.557Z,72.78
2017-05-31T05:57:57.267Z,72.45
2017-05-31T05:58:57.973Z,72.68
2017-05-31T05:59:58.678Z,72.49
2017-05-31T06:00:59.383Z,72.49
2017-05-31T06:02:00.336Z,71.72
2017-05-31T06:03:01.042Z,72.30
2017-05-31T06:04:01.756Z,72.11
2017-05-31T06:05:02.471Z,71.53
2017-05-31T06:06:03.177Z,72.01
2017-05-31T06:07:04.085Z,72.20
2017-05-31T06:08:04.795Z,72.20
2017-05-31T06:09:05.498Z,72.01
2017-05-31T06:10:06.204Z,72.11
2017-05-31T06:11:06.911Z,72.20
2017-05-31T06:12:07.822Z,71.62
2017-05-31T06:13:08.528Z,71.43
2017-05-31T06:14:09.236Z,71.56
2017-05-31T06:15:09.948Z,71.47
2017-05-31T06:16:10.654Z,71.56
2017-05-31T06:17:11.562Z,71.28
2017-05-31T06:18:12.272Z,70.89
2017-05-31T06:19:12.979Z,71.18
2017-05-31T06:20:13.688Z,70.50
2017-05-31T06:21:14.409Z,70.41
2017-05-31T06:22:15.313Z,70.98
2017-05-31T06:23:16.019Z,70.70
2017-05-31T06:24:16.725Z,71.08
2017-05-31T06:25:17.434Z,70.73
2017-05-31T06:26:18.142Z,70.70
2017-05-31T06:27:19.099Z,70.98
2017-05-31T06:28:19.807Z,70.21
2017-05-31T06:29:20.523Z,70.54
2017-05-31T06:30:21.231Z,70.21
2017-05-31T06:31:21.938Z,70.15
2017-05-31T06:32:22.902Z,69.83
2017-05-31T06:33:23.612Z,69.87
2017-05-31T06:34:24.317Z,69.96
2017-05-31T06:35:25.023Z,69.48
2017-05-31T06:36:25.740Z,69.48
2017-05-31T06:37:26.703Z,69.73
2017-05-31T06:38:27.409Z,70.44
2017-05-31T06:39:28.115Z,70.98
2017-05-31T06:40:28.818Z,71.28
2017-05-31T06:41:29.525Z,70.79
2017-05-31T06:42:30.431Z,70.64
2017-05-31T06:43:31.142Z,71.31
2017-05-31T06:44:31.851Z,70.35
2017-05-31T06:45:32.555Z,70.54
2017-05-31T06:46:33.264Z,70.06
2017-05-31T06:47:34.177Z,69.67
2017-05-31T06:48:34.882Z,69.96
2017-05-31T06:49:35.588Z,69.77
2017-05-31T06:50:36.294Z,69.29
2017-05-31T06:51:37.004Z,70.15
2017-05-31T06:52:37.965Z,70.15
2017-05-31T06:53:38.673Z,70.25
2017-05-31T06:54:39.383Z,70.06
2017-05-31T06:55:40.089Z,69.77
2017-05-31T06:56:40.804Z,69.38
2017-05-31T06:57:41.716Z,69.67
2017-05-31T06:58:42.421Z,69.38
2017-05-31T06:59:43.127Z,69.87
2017-05-31T07:00:43.841Z,69.80
2017-05-31T07:01:44.551Z,69.19
2017-05-31T07:02:45.459Z,70.09
2017-05-31T07:03:46.166Z,69.13
2017-05-31T07:04:46.875Z,69.32
2017-05-31T07:05:47.591Z,69.32
2017-05-31T07:06:48.299Z,68.84
2017-05-31T07:07:49.207Z,68.80
2017-05-31T07:08:49.915Z,68.84
2017-05-31T07:09:50.622Z,68.93
2017-05-31T07:10:51.327Z,69.03
2017-05-31T07:11:52.043Z,69.13
2017-05-31T07:12:53.006Z,69.13
2017-05-31T07:13:53.713Z,69.32
2017-05-31T07:14:54.419Z,68.77
2017-05-31T07:15:55.128Z,67.68
2017-05-31T07:16:55.840Z,68.10
2017-05-31T07:17:56.795Z,68.35
2017-05-31T07:18:57.502Z,68.74
2017-05-31T07:19:58.215Z,69.13
2017-05-31T07:20:58.923Z,68.16
2017-05-31T07:21:59.629Z,67.97
2017-05-31T07:23:00.585Z,68.07
2017-05-31T07:24:01.304Z,68.07
2017-05-31T07:25:02.032Z,68.26
2017-05-31T07:26:02.740Z,67.68
2017-05-31T07:27:03.448Z,68.16
2017-05-31T07:28:04.355Z,68.39
2017-05-31T07:29:05.063Z,67.10
2017-05-31T07:30:05.775Z,67.58
2017-05-31T07:31:06.485Z,67.91
2017-05-31T07:32:07.199Z,68.10
2017-05-31T07:33:08.153Z,67.71
2017-05-31T07:34:08.860Z,67.14
2017-05-31T07:35:09.567Z,66.85
2017-05-31T07:36:10.274Z,67.04
2017-05-31T07:37:10.981Z,67.04
2017-05-31T07:38:11.892Z,67.33
2017-05-31T07:39:12.599Z,67.23
2017-05-31T07:40:13.307Z,67.33
2017-05-31T07:41:14.018Z,66.94
2017-05-31T07:42:14.725Z,66.94
2017-05-31T07:43:15.631Z,67.23
2017-05-31T07:44:16.341Z,66.85
2017-05-31T07:45:17.068Z,66.27
2017-05-31T07:46:17.773Z,66.75
2017-05-31T07:47:18.478Z,66.17
2017-05-31T07:48:19.436Z,66.27
2017-05-31T07:49:20.139Z,66.27
2017-05-31T07:50:20.847Z,66.08
2017-05-31T07:51:21.552Z,65.69
2017-05-31T07:52:22.260Z,65.88
2017-05-31T07:53:23.217Z,65.98
2017-05-31T07:54:23.924Z,65.59
2017-05-31T07:55:24.632Z,65.88
2017-05-31T07:56:25.341Z,66.27
2017-05-31T07:57:26.097Z,66.27
2017-05-31T07:58:27.085Z,66.17
2017-05-31T07:59:27.813Z,66.36
2017-05-31T08:00:28.519Z,65.88
2017-05-31T08:01:29.228Z,65.78
2017-05-31T08:02:29.938Z,65.72
2017-05-31T08:03:30.849Z,65.50
2017-05-31T08:04:31.558Z,65.50
2017-05-31T08:05:32.269Z,65.88
2017-05-31T08:06:32.976Z,65.34
2017-05-31T08:07:33.686Z,64.53
2017-05-31T08:08:34.614Z,65.40
2017-05-31T08:09:35.332Z,65.01
2017-05-31T08:10:36.044Z,65.40
2017-05-31T08:11:36.748Z,65.69
2017-05-31T08:12:37.459Z,65.62
2017-05-31T08:13:38.367Z,64.66
2017-05-31T08:14:39.074Z,64.28
2017-05-31T08:15:39.778Z,63.28
2017-05-31T08:16:40.482Z,64.28
2017-05-31T08:17:41.190Z,63.31
2017-05-31T08:18:41.895Z,64.08
2017-05-31T08:19:42.571Z,63.89
2017-05-31T08:20:43.302Z,63.02
2017-05-31T08:21:44.010Z,62.89
2017-05-31T08:22:44.720Z,63.18
2017-05-31T08:23:45.673Z,63.70
2017-05-31T08:24:46.374Z,62.73
2017-05-31T08:25:47.085Z,61.83
2017-05-31T08:26:47.793Z,61.77
2017-05-31T08:27:48.504Z,62.34
2017-05-31T08:28:49.409Z,61.28
2017-05-31T08:29:50.127Z,61.47
2017-05-31T08:30:50.838Z,61.77
2017-05-31T08:31:51.545Z,61.67
2017-05-31T08:32:52.250Z,61.67
2017-05-31T08:33:53.158Z,61.47
2017-05-31T08:34:53.867Z,61.60
2017-05-31T08:35:54.577Z,60.64
2017-05-31T08:36:55.285Z,60.13
2017-05-31T08:37:55.992Z,59.74
2017-05-31T08:38:56.903Z,59.64
2017-05-31T08:39:57.612Z,59.74
2017-05-31T08:40:58.319Z,60.06
2017-05-31T08:41:59.034Z,60.06
2017-05-31T08:42:59.752Z,59.48
2017-05-31T08:44:00.659Z,59.77
2017-05-31T08:45:01.362Z,58.90
2017-05-31T08:46:02.073Z,59.41
2017-05-31T08:47:02.776Z,58.80
2017-05-31T08:48:03.482Z,59.38
2017-05-31T08:49:04.443Z,58.51
2017-05-31T08:50:05.153Z,58.25
2017-05-31T08:51:05.862Z,58.45
2017-05-31T08:52:06.574Z,58.45
2017-05-31T08:53:07.287Z,58.25
2017-05-31T08:54:08.250Z,58.54
2017-05-31T08:55:08.960Z,58.35
2017-05-31T08:56:09.676Z,58.64
2017-05-31T08:57:10.384Z,57.77
2017-05-31T08:58:11.109Z,57.77
2017-05-31T08:59:12.069Z,57.67
2017-05-31T09:00:12.781Z,57.29
2017-05-31T09:01:13.490Z,57.67
2017-05-31T09:02:14.197Z,56.96
2017-05-31T09:03:14.913Z,57.54
2017-05-31T09:04:15.820Z,57.19
2017-05-31T09:05:16.528Z,57.48
2017-05-31T09:06:17.237Z,56.93
2017-05-31T09:07:17.954Z,57.60
2017-05-31T09:08:18.672Z,57.03
2017-05-31T09:09:19.634Z,56.47
2017-05-31T09:10:20.358Z,55.41
2017-05-31T09:11:21.068Z,55.60
2017-05-31T09:12:21.772Z,55.99
2017-05-31T09:13:22.482Z,55.79
2017-05-31T09:14:23.401Z,55.82
2017-05-31T09:15:24.108Z,55.73
2017-05-31T09:16:24.822Z,55.63
2017-05-31T09:17:25.537Z,56.30
2017-05-31T09:18:26.247Z,54.57
2017-05-31T09:19:27.157Z,55.34
2017-05-31T09:20:27.863Z,55.15
2017-05-31T09:21:28.571Z,54.15
2017-05-31T09:22:29.279Z,55.11
2017-05-31T09:23:29.987Z,55.15
2017-05-31T09:24:30.904Z,54.85
2017-05-31T09:25:31.617Z,55.15
2017-05-31T09:26:32.326Z,54.27
2017-05-31T09:27:33.038Z,52.53
2017-05-31T09:28:33.748Z,52.92
2017-05-31T09:29:34.705Z,53.11
2017-05-31T09:30:35.414Z,52.24
2017-05-31T09:31:36.128Z,51.86
2017-05-31T09:32:36.837Z,52.82
2017-05-31T09:33:37.556Z,52.73
2017-05-31T09:34:38.512Z,52.05
2017-05-31T09:35:39.217Z,52.17
2017-05-31T09:36:39.928Z,53.14
2017-05-31T09:37:40.639Z,52.10
2017-05-31T09:38:41.349Z,52.20
2017-05-31T09:39:42.272Z,51.50
2017-05-31T09:40:42.981Z,51.20
2017-05-31T09:41:43.695Z,50.89
2017-05-31T09:42:44.412Z,51.95
2017-05-31T09:43:45.126Z,52.14
2017-05-31T09:44:46.034Z,52.05
2017-05-31T09:45:46.745Z,52.27
2017-05-31T09:46:47.455Z,52.17
2017-05-31T09:47:48.166Z,51.23
2017-05-31T09:48:48.876Z,51.81
2017-05-31T09:49:49.837Z,52.29
2017-05-31T09:50:50.778Z,51.74
2017-05-31T09:51:51.495Z,51.32
2017-05-31T09:52:52.202Z,51.01
2017-05-31T09:53:52.914Z,51.98
2017-05-31T09:54:53.873Z,51.88
2017-05-31T09:55:54.583Z,51.88
2017-05-31T09:56:55.290Z,52.29
2017-05-31T09:57:56.000Z,50.94
2017-05-31T09:58:56.711Z,51.23
2017-05-31T09:59:57.669Z,50.62
2017-05-31T10:00:58.378Z,50.84
2017-05-31T10:01:59.092Z,51.23
2017-05-31T10:02:59.804Z,52.00
2017-05-31T10:04:00.513Z,51.64
2017-05-31T10:05:01.422Z,49.99
2017-05-31T10:06:02.137Z,49.70
2017-05-31T10:07:02.844Z,51.25
2017-05-31T10:08:03.550Z,50.12
2017-05-31T10:09:04.258Z,50.12
2017-05-31T10:10:05.169Z,49.34
2017-05-31T10:11:05.880Z,49.54
2017-05-31T10:12:06.588Z,49.15
2017-05-31T10:13:07.299Z,48.57
2017-05-31T10:14:08.002Z,47.38
2017-05-31T10:15:08.913Z,48.13
2017-05-31T10:16:09.625Z,48.83
2017-05-31T10:17:10.334Z,49.51
2017-05-31T10:18:11.046Z,49.32
2017-05-31T10:19:11.758Z,49.22
2017-05-31T10:20:12.718Z,49.02
2017-05-31T10:21:13.428Z,48.44
2017-05-31T10:22:14.146Z,49.41
2017-05-31T10:23:14.859Z,49.15
2017-05-31T10:24:15.573Z,48.57
2017-05-31T10:25:16.487Z,47.89
2017-05-31T10:26:17.198Z,47.02
2017-05-31T10:27:17.910Z,48.08
2017-05-31T10:28:18.628Z,46.62
2017-05-31T10:29:19.339Z,47.11
2017-05-31T10:30:20.302Z,47.60
2017-05-31T10:31:21.026Z,48.27
2017-05-31T10:32:21.736Z,47.02
2017-05-31T10:33:22.446Z,47.30
2017-05-31T10:34:23.154Z,47.20
2017-05-31T10:35:24.114Z,47.69
2017-05-31T10:36:24.823Z,47.50
2017-05-31T10:37:25.537Z,47.02
2017-05-31T10:38:26.249Z,47.67
2017-05-31T10:39:26.964Z,47.98
2017-05-31T10:40:27.930Z,48.20
2017-05-31T10:41:28.634Z,48.10
2017-05-31T10:42:29.343Z,47.64
2017-05-31T10:43:30.052Z,46.19
2017-05-31T10:44:30.759Z,46.28
2017-05-31T10:45:31.719Z,45.99
2017-05-31T10:46:32.428Z,46.26
2017-05-31T10:47:33.135Z,45.75
2017-05-31T10:48:33.846Z,46.04
2017-05-31T10:49:34.557Z,47.13
2017-05-31T10:50:35.272Z,46.38
2017-05-31T10:51:35.983Z,45.97
2017-05-31T10:52:36.693Z,45.87
2017-05-31T10:53:37.414Z,46.62
2017-05-31T10:54:38.121Z,46.80
2017-05-31T10:55:39.080Z,47.50
2017-05-31T10:56:39.792Z,47.02
2017-05-31T10:57:40.501Z,46.65
2017-05-31T10:58:41.214Z,47.03
2017-05-31T10:59:41.925Z,46.07
2017-05-31T11:00:42.847Z,47.42
2017-05-31T11:01:43.558Z,46.09
2017-05-31T11:02:44.271Z,44.83
2017-05-31T11:03:44.982Z,44.73
2017-05-31T11:04:45.694Z,44.92
2017-05-31T11:05:46.658Z,44.54
2017-05-31T11:06:47.369Z,45.12
2017-05-31T11:07:48.084Z,44.92
2017-05-31T11:08:48.793Z,44.95
2017-05-31T11:09:49.503Z,43.51
2017-05-31T11:10:50.466Z,43.41
2017-05-31T11:11:51.176Z,43.61
2017-05-31T11:12:51.883Z,43.22
2017-05-31T11:13:52.595Z,42.74
2017-05-31T11:14:53.305Z,42.44
2017-05-31T11:15:54.267Z,43.32
2017-05-31T11:16:54.976Z,42.74
2017-05-31T11:17:55.692Z,41.94
2017-05-31T11:18:56.411Z,42.13
2017-05-31T11:19:57.122Z,42.91
2017-05-31T11:20:58.034Z,42.44
2017-05-31T11:21:58.747Z,43.32
2017-05-31T11:22:59.458Z,42.15
2017-05-31T11:24:00.171Z,42.52
2017-05-31T11:25:00.883Z,43.88
2017-05-31T11:26:01.853Z,43.61
2017-05-31T11:27:02.561Z,42.61
2017-05-31T11:28:03.269Z,42.61
2017-05-31T11:29:03.979Z,42.74
2017-05-31T11:30:04.691Z,42.46
2017-05-31T11:31:05.604Z,43.24
2017-05-31T11:32:06.314Z,41.20
2017-05-31T11:33:07.031Z,41.59
2017-05-31T11:34:07.742Z,41.10
2017-05-31T11:35:08.451Z,41.13
2017-05-31T11:36:09.411Z,41.42
2017-05-31T11:37:10.118Z,40.25
2017-05-31T11:38:10.846Z,40.64
2017-05-31T11:39:11.557Z,41.44
2017-05-31T11:40:12.270Z,42.25
2017-05-31T11:41:13.183Z,40.76
2017-05-31T11:42:13.895Z,39.04
2017-05-31T11:43:14.606Z,37.22
2017-05-31T11:44:15.320Z,33.33
2017-05-31T11:45:16.033Z,32.65
2017-05-31T11:46:16.997Z,35.21
2017-05-31T11:47:17.713Z,34.36
2017-05-31T11:48:18.424Z,32.10
2017-05-31T11:49:19.137Z,30.30
2017-05-31T11:50:19.849Z,31.93
2017-05-31T11:51:20.762Z,33.26
2017-05-31T11:52:21.479Z,33.73
2017-05-31T11:53:22.196Z,34.69
2017-05-31T11:54:22.911Z,35.63
2017-05-31T11:55:23.623Z,34.50
2017-05-31T11:56:24.597Z,33.36
2017-05-31T11:57:25.312Z,31.42
2017-05-31T11:58:26.022Z,30.54
2017-05-31T11:59:26.746Z,29.55
2017-05-31T12:00:27.469Z,30.65
2017-05-31T12:01:28.382Z,29.60
2017-05-31T12:02:29.097Z,27.25
2017-05-31T12:03:29.806Z,28.05
2017-05-31T12:04:30.519Z,26.46
2017-05-31T12:05:31.238Z,26.98
2017-05-31T12:06:32.209Z,27.18
2017-05-31T12:07:32.924Z,26.61
2017-05-31T12:08:33.648Z,26.82
2017-05-31T12:09:34.365Z,24.98
2017-05-31T12:10:35.080Z,23.61
2017-05-31T12:11:36.047Z,23.55
2017-05-31T12:12:36.762Z,24.68
2017-05-31T12:13:37.481Z,26.11
2017-05-31T12:14:38.203Z,26.79
2017-05-31T12:15:38.916Z,28.44
2017-05-31T12:16:39.882Z,29.25
2017-05-31T12:17:40.599Z,28.53
2017-05-31T12:18:41.321Z,25.84
2017-05-31T12:19:42.036Z,27.25
2017-05-31T12:20:42.753Z,25.71
2017-05-31T12:21:43.717Z,24.88
2017-05-31T12:22:44.431Z,26.37
2017-05-31T12:23:45.143Z,25.01
2017-05-31T12:24:45.863Z,26.10
2017-05-31T12:25:46.576Z,24.65
2017-05-31T12:26:47.546Z,23.67
2017-05-31T12:27:48.271Z,23.35
2017-05-31T12:28:48.987Z,24.65
2017-05-31T12:29:49.706Z,24.00
2017-05-31T12:30:50.430Z,22.45
2017-05-31T12:31:51.397Z,22.34
2017-05-31T12:32:52.111Z,22.85
2017-05-31T12:33:52.825Z,21.10
2017-05-31T12:34:53.543Z,20.29
2017-05-31T12:35:54.264Z,21.19
2017-05-31T12:36:55.179Z,20.29
2017-05-31T12:37:55.895Z,20.64
2017-05-31T12:38:56.619Z,22.46
2017-05-31T12:39:57.333Z,23.42
2017-05-31T12:40:58.049Z,24.29
2017-05-31T12:41:59.015Z,24.16
2017-05-31T12:42:59.728Z,26.12
2017-05-31T12:44:00.446Z,25.10
2017-05-31T12:45:01.158Z,23.93
2017-05-31T12:46:01.871Z,23.70
2017-05-31T12:47:02.785Z,25.35
2017-05-31T12:48:03.499Z,25.67
2017-05-31T12:49:04.238Z,24.86
2017-05-31T12:50:04.954Z,24.91
2017-05-31T12:51:05.682Z,23.94
2017-05-31T12:52:06.595Z,23.17
2017-05-31T12:53:07.325Z,23.09
2017-05-31T12:54:08.034Z,22.02
2017-05-31T12:55:08.758Z,22.15
2017-05-31T12:56:09.474Z,20.11
2017-05-31T12:57:10.438Z,19.82
2017-05-31T12:58:11.159Z,19.05
2017-05-31T12:59:11.874Z,18.46
2017-05-31T13:00:12.589Z,18.07
2017-05-31T13:01:13.307Z,17.97
2017-05-31T13:02:14.275Z,17.88